Identifier: KMEV

AWOS Phone: 775-782-6264

AWOS Radio Freq: 119.325

Latitude: 39.00000000

Longitude: -119.75190000

Current Conditions

Updated: 8:11 AM GMT on 15 Jul 2024

  • Wind Speed (2min):
    5 Knots
  • Wind Direction (2min):
    100 Degrees
  • Temperature (10min):
    12 Celsius
  • Dew Point (10min):
    6 Celsius
  • Humidity:
    64 Percent
  • Altimeter:
    30.28 inHG
  • Density Altitude:
  • Visibility:
    10+ Miles
  • Clouds:
    FEW037 FEW047 SCT055
  • Rainfall Current Hour:
    0 Inches
METAR: METAR KMEV 150810Z AUTO 10006KT 10SM FEW037 FEW047 SCT055 12/06 A3028 RMK AO2